Airfield :
LOGIN :

Register | Disclaimer

   EN    FR    IT 

 










Legend :    VFR   Marginal VFR   IFR   Intensive IFR   Very Intensive IFR
Visi :
Ceiling :
>= 8 km
>= 3000ft
5 to 8 km
1000 to 3000 ft
1500m to 5 km
500 to 1000 ft
800 to 1500m
200 to 500 ft
< 800m
< 200 ft
Symbols :   Thunderstorms  Fog  Heavy snow  Heavy precipitations  Wind > 20 kt
SIGMETs :     Misc.  Thunderstorms  Icing  Turbulence  Mountain Waves  Volcanic Ashes






- Airport Elevation : 124 ft
- IATA code : RNS


LFRN - Rennes

CURRENT METAR :
  • 250630Z AUTO VRB02KT 0650 0550 R28/0800N R10/0750N FZFG VV/// M00/M00 Q1033 TEMPO 0300 FZFG

EXPIRED METARs :
  • 250600Z AUTO 24004KT 0650 R28/0800N R10/0900U FZFG VV/// M00/M00 Q1033 TEMPO 0300 FZFG
  • 250530Z AUTO VRB02KT 0800 R28/0900N R10/1100U FZFG VV/// M00/M00 Q1033 TEMPO 0300 FZFG
  • 250500Z AUTO VRB02KT 0900 0800 R28/1400D R10/1100U FZFG VV/// M00/M00 Q1033 TEMPO 0300 FZFG
  • 250430Z AUTO VRB02KT 0750 R28/0900N R10/1100U FZFG VV/// M00/M00 Q1032 TEMPO 0300 FZFG
  • 250400Z AUTO 17003KT 150V210 1000 0900 R28/1200U R10/1200U BCFG VV/// M00/M00 Q1032 TEMPO 0300 FZFG

TAF TAF LFRN
Valid from the 25 at 06:00 until the 26 at 06:00 UTC


250500Z 2506/2606 VRB03KT 3000 BR OVC003
TEMPO 2506/2511 0500 FG VV///
PROB40
TEMPO 2506/2510 0300 FZFG VV///
BECMG 2511/2513 6000 NSW
PROB40
TEMPO 2514/2518 BKN005
BECMG 2518/2520 3000 BR
TEMPO 2522/2606 0500 FG VV///
ATIS : +33 2 99 67 72 50



MET'MAP, your aeronautical weather chart ! - Copyright ORBIFLY December 2007 - Disclaimer

ORBIFLY MET'MAP TEAM :

Programming & Development : Alexandra Zaïnal
Original concept : Baudouin d'Aumeries
Technical & hardware support : Manuel Goepfert
Assistance : Marc-Olivier Méhu

Contact : metmap@orbifly.com




SOURCES & CREDITS :

   NOAA